Wetterdaten: Dienstag, 28.04.2015
Datum Zeit Temp. A. Feuchte A. Luftdruck Regen Wind Richtung Richtung Sonnenschein ET UV Solar Taupunkt Windchill Windben Empfang
28.04.2015 00:00 13,2 C 58 % 996,0 hPa 0,0 l/m 0,0 km/h (0 Bft) S 173 0 min 0,000 mm 0,0 UV-I 0 W/m 5,1 C 13,2 C 0,0 km/h (0 Bft) 0,00 %
28.04.2015 00:15 13,2 C 63 % 996,2 hPa 0,0 l/m 0,0 km/h (0 Bft) S-SW 202 0 min 0,000 mm 0,0 UV-I 0 W/m 6,3 C 13,2 C 0,0 km/h (0 Bft) 0,00 %
28.04.2015 00:30 12,2 C 64 % 996,3 hPa 0,0 l/m 0,0 km/h (0 Bft) S-SW 196 0 min 0,000 mm 0,0 UV-I 0 W/m 5,6 C 12,2 C 0,0 km/h (0 Bft) 0,00 %
28.04.2015 00:45 12,3 C 63 % 996,4 hPa 0,0 l/m 0,0 km/h (0 Bft) S 180 0 min 0,000 mm 0,0 UV-I 0 W/m 5,5 C 12,3 C 0,0 km/h (0 Bft) 0,00 %
28.04.2015 01:00 12,3 C 66 % 996,3 hPa 0,0 l/m 0,0 km/h (0 Bft) S 181 0 min 0,000 mm 0,0 UV-I 0 W/m 6,1 C 12,3 C 0,0 km/h (0 Bft) 0,00 %
28.04.2015 01:15 11,5 C 70 % 996,6 hPa 0,0 l/m 0,0 km/h (0 Bft) S-SW 192 0 min 0,000 mm 0,0 UV-I 0 W/m 6,2 C 11,5 C 0,0 km/h (0 Bft) 0,00 %
28.04.2015 01:30 11,1 C 70 % 996,9 hPa 0,0 l/m 0,0 km/h (0 Bft) S-SW 192 0 min 0,000 mm 0,0 UV-I 0 W/m 5,8 C 11,1 C 0,0 km/h (0 Bft) 0,00 %
28.04.2015 01:45 10,8 C 71 % 996,9 hPa 0,0 l/m 0,0 km/h (0 Bft) S-SW 192 0 min 0,000 mm 0,0 UV-I 0 W/m 5,8 C 10,8 C 0,0 km/h (0 Bft) 0,00 %
28.04.2015 02:00 10,6 C 71 % 996,8 hPa 0,0 l/m 0,0 km/h (0 Bft) S-SW 192 0 min 0,000 mm 0,0 UV-I 0 W/m 5,6 C 10,6 C 0,0 km/h (0 Bft) 0,00 %
28.04.2015 02:15 10,6 C 70 % 996,9 hPa 0,0 l/m 0,0 km/h (0 Bft) S-SW 193 0 min 0,000 mm 0,0 UV-I 0 W/m 5,4 C 10,6 C 0,0 km/h (0 Bft) 0,00 %
28.04.2015 02:30 10,4 C 73 % 997,1 hPa 0,0 l/m 0,0 km/h (0 Bft) S 191 0 min 0,000 mm 0,0 UV-I 0 W/m 5,8 C 10,4 C 0,0 km/h (0 Bft) 0,00 %
28.04.2015 02:45 10,4 C 75 % 997,0 hPa 0,0 l/m 0,0 km/h (0 Bft) S 176 0 min 0,000 mm 0,0 UV-I 0 W/m 6,2 C 10,4 C 0,0 km/h (0 Bft) 0,00 %
28.04.2015 03:00 10,3 C 75 % 997,1 hPa 0,0 l/m 0,0 km/h (0 Bft) S 180 0 min 0,000 mm 0,0 UV-I 0 W/m 6,1 C 10,3 C 0,0 km/h (0 Bft) 0,00 %
28.04.2015 03:15 10,1 C 77 % 997,1 hPa 0,0 l/m 0,0 km/h (0 Bft) S 189 0 min 0,000 mm 0,0 UV-I 0 W/m 6,3 C 10,1 C 0,0 km/h (0 Bft) 0,00 %
28.04.2015 03:30 9,9 C 77 % 997,3 hPa 0,0 l/m 0,0 km/h (0 Bft) S 173 0 min 0,000 mm 0,0 UV-I 0 W/m 6,1 C 9,9 C 0,0 km/h (0 Bft) 0,00 %
28.04.2015 03:45 9,9 C 76 % 997,4 hPa 0,0 l/m 0,0 km/h (0 Bft) S 185 0 min 0,000 mm 0,0 UV-I 0 W/m 5,9 C 9,9 C 0,0 km/h (0 Bft) 0,00 %
28.04.2015 04:00 10,0 C 77 % 997,4 hPa 0,0 l/m 0,0 km/h (0 Bft) S 185 0 min 0,000 mm 0,0 UV-I 0 W/m 6,2 C 10,0 C 0,0 km/h (0 Bft) 0,00 %
28.04.2015 04:15 10,1 C 78 % 997,5 hPa 0,0 l/m 0,0 km/h (0 Bft) SW 230 0 min 0,000 mm 0,0 UV-I 0 W/m 6,4 C 10,1 C 0,0 km/h (0 Bft) 0,00 %
28.04.2015 04:30 10,4 C 78 % 997,7 hPa 0,0 l/m 0,0 km/h (0 Bft) S 178 0 min 0,000 mm 0,0 UV-I 0 W/m 6,7 C 10,4 C 0,0 km/h (0 Bft) 0,00 %
28.04.2015 04:45 10,2 C 79 % 997,8 hPa 0,0 l/m 0,0 km/h (0 Bft) S-SW 209 0 min 0,000 mm 0,0 UV-I 0 W/m 6,7 C 10,2 C 0,0 km/h (0 Bft) 0,00 %
28.04.2015 05:00 10,0 C 80 % 998,0 hPa 0,0 l/m 0,0 km/h (0 Bft) S 178 0 min 0,000 mm 0,0 UV-I 0 W/m 6,7 C 10,0 C 0,0 km/h (0 Bft) 0,00 %
28.04.2015 05:15 10,2 C 75 % 998,2 hPa 0,0 l/m 0,0 km/h (0 Bft) S 178 0 min 0,000 mm 0,0 UV-I 0 W/m 6,0 C 10,2 C 0,0 km/h (0 Bft) 0,00 %
28.04.2015 05:30 10,5 C 75 % 998,3 hPa 0,0 l/m 0,0 km/h (0 Bft) S 182 0 min 0,000 mm 0,0 UV-I 0 W/m 6,3 C 10,5 C 0,0 km/h (0 Bft) 0,00 %
28.04.2015 05:45 10,6 C 76 % 998,4 hPa 0,0 l/m 0,0 km/h (0 Bft) S 184 0 min 0,000 mm 0,0 UV-I 0 W/m 6,5 C 10,6 C 0,0 km/h (0 Bft) 0,00 %
28.04.2015 06:00 11,2 C 77 % 998,6 hPa 0,0 l/m 0,0 km/h (0 Bft) O-SO 103 0 min 0,000 mm 0,0 UV-I 4 W/m 7,3 C 11,2 C 0,0 km/h (0 Bft) 0,00 %
28.04.2015 06:15 11,1 C 78 % 998,9 hPa 0,0 l/m 6,5 km/h (2 Bft) SW 221 0 min 0,000 mm 0,0 UV-I 5 W/m 7,4 C 11,1 C 7,9 km/h (2 Bft) 0,00 %
28.04.2015 06:30 11,3 C 78 % 999,3 hPa 0,0 l/m 1,4 km/h (1 Bft) SW 226 0 min 0,000 mm 0,0 UV-I 22 W/m 7,6 C 11,3 C 4,0 km/h (1 Bft) 0,00 %
28.04.2015 06:45 11,6 C 77 % 999,4 hPa 0,0 l/m 0,7 km/h (0 Bft) S-SW 212 0 min 0,000 mm 0,0 UV-I 29 W/m 7,7 C 11,6 C 4,0 km/h (1 Bft) 0,00 %
28.04.2015 07:00 11,8 C 76 % 999,7 hPa 0,0 l/m 2,9 km/h (1 Bft) W-SW 255 0 min 0,000 mm 0,0 UV-I 22 W/m 7,7 C 11,8 C 4,0 km/h (1 Bft) 0,00 %
28.04.2015 07:15 12,1 C 78 % 999,9 hPa 0,0 l/m 1,8 km/h (1 Bft) W 270 0 min 0,000 mm 1,0 UV-I 37 W/m 8,4 C 12,1 C 4,0 km/h (1 Bft) 0,00 %
28.04.2015 07:30 12,6 C 82 % 1000,0 hPa 0,0 l/m 4,0 km/h (1 Bft) W-SW 251 0 min 0,000 mm 1,0 UV-I 57 W/m 9,6 C 12,6 C 4,0 km/h (1 Bft) 0,00 %
28.04.2015 07:45 12,8 C 83 % 1000,2 hPa 0,0 l/m 0,4 km/h (0 Bft) S-SW 208 0 min 0,000 mm 1,0 UV-I 56 W/m 10,0 C 12,8 C 4,0 km/h (1 Bft) 0,00 %
28.04.2015 08:00 12,8 C 83 % 1000,5 hPa 0,0 l/m 2,2 km/h (1 Bft) S 180 0 min 0,000 mm 0,0 UV-I 65 W/m 10,0 C 12,8 C 4,0 km/h (1 Bft) 0,00 %
28.04.2015 08:15 12,8 C 83 % 1000,4 hPa 0,0 l/m 0,4 km/h (0 Bft) W 259 0 min 0,000 mm 1,0 UV-I 24 W/m 10,0 C 12,8 C 4,0 km/h (1 Bft) 0,00 %
28.04.2015 08:30 12,9 C 83 % 1000,5 hPa 0,0 l/m 0,0 km/h (0 Bft) SW 226 0 min 0,000 mm 1,0 UV-I 70 W/m 10,1 C 12,9 C 0,0 km/h (0 Bft) 0,00 %
28.04.2015 08:45 13,0 C 82 % 1000,9 hPa 0,0 l/m 0,0 km/h (0 Bft) S 178 0 min 0,000 mm 1,0 UV-I 102 W/m 10,0 C 13,0 C 0,0 km/h (0 Bft) 0,00 %
28.04.2015 09:00 12,9 C 82 % 1001,2 hPa 0,0 l/m 10,4 km/h (2 Bft) W-SW 251 0 min 0,000 mm 1,0 UV-I 64 W/m 9,9 C 10,6 C 15,8 km/h (3 Bft) 0,00 %
28.04.2015 09:15 12,9 C 82 % 1001,6 hPa 0,0 l/m 1,8 km/h (1 Bft) N-NW 328 0 min 0,000 mm 1,0 UV-I 86 W/m 9,9 C 12,9 C 4,0 km/h (1 Bft) 0,00 %
28.04.2015 09:30 13,2 C 79 % 1001,7 hPa 0,0 l/m 2,2 km/h (1 Bft) W-SW 251 0 min 0,000 mm 1,0 UV-I 158 W/m 9,6 C 13,2 C 7,9 km/h (2 Bft) 0,00 %
28.04.2015 09:45 13,5 C 77 % 1002,0 hPa 0,0 l/m 7,9 km/h (2 Bft) W-SW 249 0 min 0,000 mm 2,0 UV-I 176 W/m 9,5 C 12,6 C 11,9 km/h (2 Bft) 0,00 %
28.04.2015 10:00 13,5 C 77 % 1002,2 hPa 0,0 l/m 6,8 km/h (2 Bft) W-SW 256 0 min 0,000 mm 2,0 UV-I 190 W/m 9,5 C 13,3 C 7,9 km/h (2 Bft) 0,00 %
28.04.2015 10:15 13,8 C 75 % 1002,6 hPa 0,0 l/m 2,2 km/h (1 Bft) S 173 0 min 0,000 mm 2,0 UV-I 218 W/m 9,4 C 13,8 C 4,0 km/h (1 Bft) 0,00 %
28.04.2015 10:30 13,7 C 75 % 1003,0 hPa 0,0 l/m 3,2 km/h (1 Bft) W 270 0 min 0,000 mm 1,0 UV-I 175 W/m 9,3 C 13,7 C 4,0 km/h (1 Bft) 0,00 %
28.04.2015 10:45 13,7 C 75 % 1003,4 hPa 0,0 l/m 0,7 km/h (0 Bft) S 180 0 min 0,000 mm 1,0 UV-I 168 W/m 9,3 C 13,7 C 4,0 km/h (1 Bft) 0,00 %
28.04.2015 11:00 13,2 C 77 % 1003,8 hPa 0,0 l/m 7,9 km/h (2 Bft) W 259 0 min 0,000 mm 1,0 UV-I 183 W/m 9,3 C 12,3 C 11,9 km/h (2 Bft) 0,00 %
28.04.2015 11:15 12,2 C 81 % 1004,6 hPa 0,0 l/m 4,3 km/h (1 Bft) W-SW 241 0 min 0,000 mm 1,0 UV-I 68 W/m 9,0 C 12,2 C 7,9 km/h (2 Bft) 0,00 %
28.04.2015 11:30 11,5 C 82 % 1005,1 hPa 0,0 l/m 7,9 km/h (2 Bft) W-SW 255 0 min 0,000 mm 1,0 UV-I 120 W/m 8,5 C 10,5 C 11,9 km/h (2 Bft) 0,00 %
28.04.2015 11:45 11,4 C 81 % 1006,0 hPa 0,0 l/m 12,2 km/h (2 Bft) S-SW 212 0 min 0,000 mm 1,0 UV-I 75 W/m 8,3 C 8,0 C 19,8 km/h (3 Bft) 0,00 %
28.04.2015 12:00 11,4 C 77 % 1006,2 hPa 0,0 l/m 6,8 km/h (2 Bft) W-SW 255 0 min 0,000 mm 1,0 UV-I 109 W/m 7,5 C 11,1 C 11,9 km/h (2 Bft) 0,00 %
28.04.2015 12:15 11,0 C 82 % 1006,7 hPa 0,0 l/m 7,2 km/h (2 Bft) W-SW 251 0 min 0,000 mm 1,0 UV-I 149 W/m 8,0 C 10,4 C 11,9 km/h (2 Bft) 0,00 %
28.04.2015 12:30 10,4 C 78 % 1007,4 hPa 0,0 l/m 16,9 km/h (3 Bft) W-SW 253 0 min 0,000 mm 2,0 UV-I 135 W/m 6,7 C 4,9 C 28,1 km/h (4 Bft) 0,00 %
28.04.2015 12:45 10,7 C 77 % 1007,7 hPa 0,0 l/m 12,2 km/h (2 Bft) S-SW 213 0 min 0,000 mm 2,0 UV-I 174 W/m 6,8 C 7,2 C 15,8 km/h (3 Bft) 0,00 %
28.04.2015 13:00 10,0 C 72 % 1008,3 hPa 0,0 l/m 6,8 km/h (2 Bft) S-SW 207 0 min 0,000 mm 2,0 UV-I 197 W/m 5,2 C 9,7 C 11,9 km/h (2 Bft) 0,00 %
28.04.2015 13:15 10,1 C 70 % 1008,7 hPa 0,0 l/m 18,4 km/h (3 Bft) NW 313 0 min 0,000 mm 2,0 UV-I 173 W/m 4,9 C 4,0 C 24,1 km/h (4 Bft) 0,00 %
28.04.2015 13:30 10,2 C 71 % 1009,1 hPa 0,0 l/m 4,0 km/h (1 Bft) N-NO 23 0 min 0,000 mm 1,0 UV-I 193 W/m 5,2 C 10,2 C 7,9 km/h (2 Bft) 0,00 %
28.04.2015 13:45 9,8 C 70 % 1009,8 hPa 0,0 l/m 24,1 km/h (4 Bft) N-NW 345 0 min 0,000 mm 1,0 UV-I 175 W/m 4,6 C 1,8 C 28,1 km/h (4 Bft) 0,00 %
28.04.2015 14:00 9,4 C 71 % 1010,1 hPa 0,0 l/m 10,4 km/h (2 Bft) W-SW 248 0 min 0,000 mm 1,0 UV-I 190 W/m 4,4 C 6,7 C 15,8 km/h (3 Bft) 0,00 %
28.04.2015 14:15 9,5 C 73 % 1010,4 hPa 0,0 l/m 26,6 km/h (4 Bft) W-NW 291 0 min 0,000 mm 2,0 UV-I 187 W/m 4,9 C 0,7 C 32,0 km/h (5 Bft) 0,00 %
28.04.2015 14:30 9,3 C 73 % 1010,5 hPa 0,0 l/m 1,4 km/h (1 Bft) W-NW 293 0 min 0,000 mm 1,0 UV-I 197 W/m 4,7 C 9,3 C 4,0 km/h (1 Bft) 0,00 %
28.04.2015 14:45 9,1 C 77 % 1011,0 hPa 0,0 l/m 9,0 km/h (2 Bft) SW 216 0 min 0,000 mm 1,0 UV-I 121 W/m 5,3 C 7,2 C 15,8 km/h (3 Bft) 0,00 %
28.04.2015 15:00 9,0 C 77 % 1011,3 hPa 0,0 l/m 11,9 km/h (2 Bft) NW 312 0 min 0,000 mm 1,0 UV-I 147 W/m 5,2 C 5,4 C 19,8 km/h (3 Bft) 0,00 %
28.04.2015 15:15 8,6 C 82 % 1011,7 hPa 0,0 l/m 7,9 km/h (2 Bft) SW 232 0 min 0,000 mm 1,0 UV-I 148 W/m 5,7 C 7,5 C 11,9 km/h (2 Bft) 0,00 %
28.04.2015 15:30 7,8 C 86 % 1012,2 hPa 0,0 l/m 5,8 km/h (2 Bft) S 187 0 min 0,000 mm 1,0 UV-I 153 W/m 5,6 C 7,8 C 7,9 km/h (2 Bft) 0,00 %
28.04.2015 15:45 7,6 C 88 % 1012,5 hPa 0,3 l/m 13,0 km/h (3 Bft) W-SW 252 0 min 0,000 mm 1,0 UV-I 72 W/m 5,7 C 3,2 C 19,8 km/h (3 Bft) 0,00 %
28.04.2015 16:00 7,5 C 87 % 1013,0 hPa 0,0 l/m 9,4 km/h (2 Bft) W-SW 255 0 min 0,000 mm 1,0 UV-I 163 W/m 5,5 C 5,2 C 11,9 km/h (2 Bft) 0,00 %
28.04.2015 16:15 7,3 C 84 % 1013,4 hPa 0,0 l/m 4,3 km/h (1 Bft) N-NW 329 0 min 0,000 mm 1,0 UV-I 155 W/m 4,8 C 7,3 C 7,9 km/h (2 Bft) 0,00 %
28.04.2015 16:30 7,1 C 85 % 1013,6 hPa 0,3 l/m 1,8 km/h (1 Bft) W-SW 237 0 min 0,000 mm 1,0 UV-I 126 W/m 4,8 C 7,1 C 4,0 km/h (1 Bft) 0,00 %
28.04.2015 16:45 6,7 C 89 % 1014,3 hPa 0,3 l/m 7,9 km/h (2 Bft) W-SW 253 0 min 0,000 mm 1,0 UV-I 70 W/m 5,0 C 5,5 C 11,9 km/h (2 Bft) 0,00 %
28.04.2015 17:00 6,5 C 90 % 1014,8 hPa 0,3 l/m 13,3 km/h (3 Bft) W-SW 251 0 min 0,000 mm 1,0 UV-I 90 W/m 5,0 C 1,8 C 19,8 km/h (3 Bft) 0,00 %
28.04.2015 17:15 6,4 C 91 % 1015,1 hPa 0,0 l/m 9,4 km/h (2 Bft) W-SW 252 0 min 0,000 mm 1,0 UV-I 104 W/m 5,0 C 4,0 C 15,8 km/h (3 Bft) 0,00 %
28.04.2015 17:30 6,4 C 92 % 1015,9 hPa 0,0 l/m 7,9 km/h (2 Bft) W-SW 253 0 min 0,000 mm 1,0 UV-I 62 W/m 5,2 C 5,2 C 11,9 km/h (2 Bft) 0,00 %
28.04.2015 17:45 6,3 C 92 % 1016,3 hPa 0,3 l/m 2,2 km/h (1 Bft) W-SW 252 0 min 0,000 mm 1,0 UV-I 46 W/m 5,1 C 6,3 C 4,0 km/h (1 Bft) 0,00 %
28.04.2015 18:00 6,3 C 93 % 1016,8 hPa 0,0 l/m 6,5 km/h (2 Bft) W-NW 285 0 min 0,000 mm 0,0 UV-I 35 W/m 5,3 C 6,2 C 11,9 km/h (2 Bft) 0,00 %
28.04.2015 18:15 6,2 C 92 % 1017,1 hPa 0,3 l/m 14,8 km/h (3 Bft) W-SW 252 0 min 0,000 mm 0,0 UV-I 21 W/m 5,0 C 0,6 C 19,8 km/h (3 Bft) 0,00 %
28.04.2015 18:30 6,2 C 92 % 1017,4 hPa 0,0 l/m 2,9 km/h (1 Bft) W-SW 256 0 min 0,000 mm 0,0 UV-I 5 W/m 5,0 C 6,2 C 7,9 km/h (2 Bft) 0,00 %
28.04.2015 18:45 6,1 C 94 % 1017,6 hPa 0,3 l/m 15,8 km/h (3 Bft) SW 232 0 min 0,000 mm 0,0 UV-I 18 W/m 5,2 C 0,0 C 19,8 km/h (3 Bft) 0,00 %
28.04.2015 19:00 6,1 C 95 % 1017,7 hPa 0,3 l/m 3,2 km/h (1 Bft) W-SW 256 0 min 0,000 mm 0,0 UV-I 10 W/m 5,4 C 6,1 C 7,9 km/h (2 Bft) 0,00 %
28.04.2015 19:15 6,1 C 95 % 1018,1 hPa 0,0 l/m 2,9 km/h (1 Bft) S 191 0 min 0,000 mm 0,0 UV-I 1 W/m 5,4 C 6,1 C 7,9 km/h (2 Bft) 0,00 %
28.04.2015 19:30 6,2 C 94 % 1018,3 hPa 0,0 l/m 0,4 km/h (0 Bft) W-SW 255 0 min 0,000 mm 0,0 UV-I 0 W/m 5,3 C 6,2 C 4,0 km/h (1 Bft) 0,00 %
28.04.2015 19:45 6,2 C 93 % 1018,5 hPa 0,0 l/m 4,7 km/h (1 Bft) W-SW 244 0 min 0,000 mm 0,0 UV-I 0 W/m 5,2 C 6,2 C 7,9 km/h (2 Bft) 0,00 %
28.04.2015 20:00 6,2 C 91 % 1018,9 hPa 0,0 l/m 4,7 km/h (1 Bft) W-SW 256 0 min 0,000 mm 0,0 UV-I 0 W/m 4,8 C 6,2 C 11,9 km/h (2 Bft) 0,00 %
28.04.2015 20:15 6,3 C 90 % 1019,5 hPa 0,0 l/m 4,3 km/h (1 Bft) W-SW 251 0 min 0,000 mm 0,0 UV-I 0 W/m 4,8 C 6,3 C 7,9 km/h (2 Bft) 0,00 %
28.04.2015 20:30 6,3 C 89 % 1019,7 hPa 0,0 l/m 0,7 km/h (0 Bft) W-SW 254 0 min 0,000 mm 0,0 UV-I 0 W/m 4,6 C 6,3 C 4,0 km/h (1 Bft) 0,00 %
28.04.2015 20:45 6,3 C 88 % 1020,0 hPa 0,0 l/m 0,0 km/h (0 Bft) SO 142 0 min 0,000 mm 0,0 UV-I 0 W/m 4,5 C 6,3 C 0,0 km/h (0 Bft) 0,00 %
28.04.2015 21:00 6,4 C 89 % 1020,1 hPa 0,0 l/m 0,0 km/h (0 Bft) S 178 0 min 0,000 mm 0,0 UV-I 0 W/m 4,7 C 6,4 C 0,0 km/h (0 Bft) 0,00 %
28.04.2015 21:15 6,2 C 90 % 1020,3 hPa 0,0 l/m 1,4 km/h (1 Bft) SW 227 0 min 0,000 mm 0,0 UV-I 0 W/m 4,7 C 6,2 C 4,0 km/h (1 Bft) 0,00 %
28.04.2015 21:30 6,2 C 91 % 1020,3 hPa 0,0 l/m 0,4 km/h (0 Bft) NO 40 0 min 0,000 mm 0,0 UV-I 0 W/m 4,8 C 6,2 C 4,0 km/h (1 Bft) 0,00 %
28.04.2015 21:45 6,2 C 91 % 1020,4 hPa 0,0 l/m 0,0 km/h (0 Bft) S-SW 196 0 min 0,000 mm 0,0 UV-I 0 W/m 4,8 C 6,2 C 0,0 km/h (0 Bft) 0,00 %
28.04.2015 22:00 6,1 C 91 % 1020,4 hPa 0,0 l/m 0,7 km/h (0 Bft) W-SW 246 0 min 0,000 mm 0,0 UV-I 0 W/m 4,7 C 6,1 C 4,0 km/h (1 Bft) 0,00 %
28.04.2015 22:15 6,1 C 92 % 1020,4 hPa 0,0 l/m 0,0 km/h (0 Bft) O-NO 59 0 min 0,000 mm 0,0 UV-I 0 W/m 4,9 C 6,1 C 0,0 km/h (0 Bft) 0,00 %
28.04.2015 22:30 6,1 C 92 % 1020,4 hPa 0,0 l/m 1,8 km/h (1 Bft) N 354 0 min 0,000 mm 0,0 UV-I 0 W/m 4,9 C 6,1 C 4,0 km/h (1 Bft) 0,00 %
28.04.2015 22:45 6,4 C 89 % 1020,5 hPa 0,0 l/m 5,8 km/h (2 Bft) W-SW 255 0 min 0,000 mm 0,0 UV-I 0 W/m 4,7 C 6,4 C 7,9 km/h (2 Bft) 0,00 %
28.04.2015 23:00 6,5 C 88 % 1020,5 hPa 0,0 l/m 2,2 km/h (1 Bft) W-SW 251 0 min 0,000 mm 0,0 UV-I 0 W/m 4,7 C 6,5 C 4,0 km/h (1 Bft) 0,00 %
28.04.2015 23:15 6,6 C 86 % 1020,4 hPa 0,0 l/m 0,0 km/h (0 Bft) SO 129 0 min 0,000 mm 0,0 UV-I 0 W/m 4,4 C 6,6 C 0,0 km/h (0 Bft) 0,00 %
28.04.2015 23:30 6,6 C 84 % 1020,7 hPa 0,0 l/m 0,4 km/h (0 Bft) NO 36 0 min 0,000 mm 0,0 UV-I 0 W/m 4,1 C 6,6 C 4,0 km/h (1 Bft) 0,00 %
28.04.2015 23:45 6,6 C 84 % 1020,8 hPa 0,0 l/m 0,7 km/h (0 Bft) S-SO 167 0 min 0,000 mm 0,0 UV-I 0 W/m 4,1 C 6,6 C 4,0 km/h (1 Bft) 0,00 %
_ Min-Zeit 18:45 00:00 00:00 - 00:00 - - - - - - 23:30 18:45 00:00 00:00
Minimum _ 6,1 C 58 % 996,0 hPa - 0,0 km/h (0 Bft) - - - - - - 4,1 C 0,0 C 0,0 km/h (0 Bft) 0,00 %
_ Max-Zeit 10:15 19:00 23:45 15:45 14:15 - - 00:00 00:00 09:45 10:15 08:30 10:15 14:15 00:00
Maximum _ 13,8 C 95 % 1020,8 hPa 0,3 l/m 26,6 km/h
W-NW (4 Bft)
- - 0 min 0,000 mm 2,0 UV-I 218 W/m 10,1 C 13,8 C 32,0 km/h
W-NW (5 Bft)
0,00 %
Durchschnitt _ 9,6 C 81 % 1007,4 hPa #2,4 l/m 4,2 km/h (1 Bft) W-SW - #0 min. #0,000 mm 1,2 UV-I 104 W/m 6,4 C 8,7 C 6,9 km/h (2 Bft) 0,00 %